Time;durP1;ratioP1;P1;durP2;ratioP2;P2;SDS_P1;SDS_P2;PMS_P1;PMS_P2;Temp;Humidity;BMP_temperature;BMP_pressure;BME280_temperature;BME280_humidity;BME280_pressure;Samples;Min_cycle;Max_cycle;Signal;HPM_P1;HPM_P2
2022/10/20 00:00:25;;;;;;;;;;;;;;;7.57;52.38;95851.72;4987403;28;20013;-77
2022/10/20 00:02:51;;;;;;;;;;;;;;;7.72;52.70;95845.88;4960200;28;20081;-77
2022/10/20 00:05:16;;;;;;;;;;;;;;;7.24;53.75;95849.63;4947191;28;20048;-78
2022/10/20 00:07:41;;;;;;;;;;;;;;;7.63;52.04;95842.31;4963063;28;19993;-77
2022/10/20 00:10:07;;;;;;;;;;;;;;;7.17;55.12;95845.09;4969358;28;20392;-77
2022/10/20 00:12:32;;;;;;;;;;;;;;;7.45;53.99;95851.13;4969665;28;19977;-77
2022/10/20 00:14:57;;;;;;;;;;;;;;;7.36;52.81;95838.78;4969138;28;19994;-78
2022/10/20 00:17:22;;;;;;;;;;;;;;;7.72;51.63;95844.03;4985934;28;19994;-77
2022/10/20 00:19:48;;;;;;;;;;;;;;;7.65;51.76;95835.06;4969879;28;19985;-77
2022/10/20 00:22:13;;;;;;;;;;;;;;;7.79;51.05;95839.81;4961332;28;19994;-77
2022/10/20 00:24:38;;;;;;;;;;;;;;;7.71;51.26;95834.44;4969379;28;20028;-77
2022/10/20 00:27:04;;;;;;;;;;;;;;;7.78;50.83;95832.88;4987137;28;20032;-77
2022/10/20 00:29:29;;;;;;;;;;;;;;;7.76;51.01;95832.16;4988218;28;20585;-77
2022/10/20 00:31:54;;;;;;;;;;;;;;;7.77;50.25;95825.91;4954367;28;21283;-77
2022/10/20 00:34:19;;;;;;;;;;;;;;;7.59;50.91;95819.78;4964083;28;19994;-79
2022/10/20 00:36:45;;;;;;;;;;;;;;;7.48;51.46;95813.72;4970828;28;19996;-78
2022/10/20 00:39:10;;;;;;;;;;;;;;;7.06;54.03;95801.94;4971129;28;19973;-78
2022/10/20 00:41:35;;;;;;;;;;;;;;;7.25;52.14;95808.91;4968682;28;20092;-79
2022/10/20 00:44:01;;;;;;;;;;;;;;;7.69;50.59;95798.47;4986461;28;19978;-79
2022/10/20 00:46:35;;;;;;;;;;;;;;;6.91;53.81;95812.25;4972218;28;19991;-79
2022/10/20 00:49:21;;;;;;;;;;;;;;;6.66;54.17;95814.59;4971162;28;20096;-79
2022/10/20 00:51:46;;;;;;;;;;;;;;;6.75;56.20;95808.44;4988128;28;19982;-78
2022/10/20 00:54:12;;;;;;;;;;;;;;;6.91;53.41;95803.47;4961664;28;20413;-78
2022/10/20 00:56:39;;;;;;;;;;;;;;;7.05;52.69;95802.09;4970450;28;20237;-78
2022/10/20 00:59:04;;;;;;;;;;;;;;;7.53;51.15;95803.53;4987866;28;20467;-78
2022/10/20 01:01:30;;;;;;;;;;;;;;;7.64;50.15;95797.13;4952553;28;20048;-78
2022/10/20 01:03:55;;;;;;;;;;;;;;;7.21;52.13;95791.66;4981121;28;20138;-78
2022/10/20 01:06:21;;;;;;;;;;;;;;;6.63;55.22;95776.06;4958022;28;20362;-77
2022/10/20 01:08:46;;;;;;;;;;;;;;;7.09;52.38;95771.69;4962268;28;20243;-78
2022/10/20 01:11:14;;;;;;;;;;;;;;;6.61;54.00;95772.75;4977399;28;20053;-78
2022/10/20 01:13:51;;;;;;;;;;;;;;;6.48;54.80;95753.72;4996374;28;19994;-78
2022/10/20 01:16:17;;;;;;;;;;;;;;;7.06;52.42;95750.81;4996243;28;19977;-77
2022/10/20 01:18:45;;;;;;;;;;;;;;;7.04;53.94;95753.59;4995132;28;19990;-78
2022/10/20 01:21:29;;;;;;;;;;;;;;;6.74;54.21;95755.66;4957030;28;20537;-78
2022/10/20 01:24:00;;;;;;;;;;;;;;;7.13;51.93;95759.81;4995101;28;19983;-78
2022/10/20 01:26:45;;;;;;;;;;;;;;;7.18;51.83;95762.00;4976919;28;19990;-78
2022/10/20 01:29:10;;;;;;;;;;;;;;;7.18;51.83;95759.38;4992427;28;20002;-77
2022/10/20 01:31:36;;;;;;;;;;;;;;;6.95;52.55;95759.81;4994470;28;19966;-77
2022/10/20 01:34:01;;;;;;;;;;;;;;;7.15;51.48;95761.31;4977840;28;19996;-78
2022/10/20 01:36:27;;;;;;;;;;;;;;;6.61;53.66;95754.22;4976332;28;19977;-78
2022/10/20 01:38:53;;;;;;;;;;;;;;;6.53;54.42;95748.81;4960970;28;19990;-77
2022/10/20 01:41:24;;;;;;;;;;;;;;;6.61;53.49;95756.03;4974726;28;20037;-77
2022/10/20 01:43:50;;;;;;;;;;;;;;;7.08;52.32;95748.84;4960370;28;20021;-78
2022/10/20 01:46:16;;;;;;;;;;;;;;;6.61;55.98;95748.09;4973593;28;19994;-78
2022/10/20 01:48:41;;;;;;;;;;;;;;;7.09;52.65;95747.88;4978223;28;19974;-78
2022/10/20 01:51:06;;;;;;;;;;;;;;;6.35;57.08;95744.31;4978850;28;20222;-78
2022/10/20 01:53:32;;;;;;;;;;;;;;;6.83;53.86;95738.06;4974612;28;20923;-78
2022/10/20 01:55:57;;;;;;;;;;;;;;;6.57;57.43;95729.06;4979990;28;20021;-78
2022/10/20 01:58:29;;;;;;;;;;;;;;;6.63;53.97;95732.88;4956117;28;19986;-78
2022/10/20 02:00:55;;;;;;;;;;;;;;;6.43;57.77;95722.41;4996177;28;20072;-78
2022/10/20 02:03:36;;;;;;;;;;;;;;;6.63;55.13;95717.00;4971864;28;20061;-78
2022/10/20 02:06:08;;;;;;;;;;;;;;;6.21;57.34;95724.50;4994818;28;20048;-78
2022/10/20 02:08:36;;;;;;;;;;;;;;;6.51;55.98;95721.72;4967960;28;20513;-77
2022/10/20 02:11:02;;;;;;;;;;;;;;;6.93;53.49;95725.56;4959544;28;20455;-77
2022/10/20 02:13:28;;;;;;;;;;;;;;;6.59;55.23;95726.22;4956212;28;20196;-78
2022/10/20 02:15:54;;;;;;;;;;;;;;;6.81;52.43;95724.13;4973756;28;20390;-78
2022/10/20 02:18:21;;;;;;;;;;;;;;;7.11;51.51;95716.78;4978026;28;19993;-77
2022/10/20 02:20:47;;;;;;;;;;;;;;;7.24;51.60;95711.91;4958495;28;19994;-77
2022/10/20 02:23:12;;;;;;;;;;;;;;;7.51;50.09;95693.34;4969963;28;20069;-78
2022/10/20 02:25:38;;;;;;;;;;;;;;;7.59;49.78;95679.34;4969816;28;20103;-78
2022/10/20 02:28:03;;;;;;;;;;;;;;;7.50;49.73;95684.59;4976374;28;20068;-77
2022/10/20 02:30:28;;;;;;;;;;;;;;;7.08;53.32;95682.66;4969739;28;20017;-78
2022/10/20 02:32:54;;;;;;;;;;;;;;;6.74;52.52;95682.38;4995969;28;20013;-78
2022/10/20 02:35:22;;;;;;;;;;;;;;;6.23;55.34;95682.88;4994092;28;20454;-77
2022/10/20 02:37:48;;;;;;;;;;;;;;;6.76;53.03;95672.50;4973086;28;20397;-77
2022/10/20 02:40:13;;;;;;;;;;;;;;;7.22;50.50;95668.88;4973750;28;19966;-77
2022/10/20 02:42:39;;;;;;;;;;;;;;;7.43;49.87;95664.19;4990539;28;19994;-78
2022/10/20 02:45:05;;;;;;;;;;;;;;;7.60;49.14;95651.84;4975774;28;19990;-78
2022/10/20 02:47:31;;;;;;;;;;;;;;;7.45;49.60;95654.28;4974009;28;19977;-78
2022/10/20 02:49:56;;;;;;;;;;;;;;;6.44;55.41;95657.13;4992304;28;19989;-77
2022/10/20 02:52:21;;;;;;;;;;;;;;;6.84;51.70;95655.84;4990918;28;19986;-77
2022/10/20 02:54:46;;;;;;;;;;;;;;;6.97;51.27;95650.16;4991661;28;19997;-78
2022/10/20 02:57:12;;;;;;;;;;;;;;;6.87;51.45;95647.59;4965969;28;19989;-78
2022/10/20 02:59:37;;;;;;;;;;;;;;;6.30;54.83;95655.84;4973786;28;19985;-77
2022/10/20 03:02:02;;;;;;;;;;;;;;;6.58;53.49;95661.09;4988984;28;20002;-78
2022/10/20 03:04:27;;;;;;;;;;;;;;;6.09;55.81;95664.88;4974793;28;19985;-78
2022/10/20 03:06:53;;;;;;;;;;;;;;;6.73;51.67;95661.38;4957523;28;20124;-77
2022/10/20 03:09:18;;;;;;;;;;;;;;;6.09;57.15;95659.59;4991207;28;20041;-77
2022/10/20 03:11:43;;;;;;;;;;;;;;;6.04;57.36;95657.41;4977581;28;19975;-77
2022/10/20 03:14:09;;;;;;;;;;;;;;;6.08;56.53;95648.19;4975692;28;20044;-77
2022/10/20 03:16:34;;;;;;;;;;;;;;;6.22;55.25;95653.94;4992169;28;20021;-78
2022/10/20 03:18:59;;;;;;;;;;;;;;;6.25;57.73;95649.19;4968081;28;20430;-77
2022/10/20 03:21:25;;;;;;;;;;;;;;;6.32;54.15;95648.59;4990631;28;20093;-77
2022/10/20 03:23:50;;;;;;;;;;;;;;;6.58;51.60;95643.41;4989547;28;20497;-77
2022/10/20 03:26:15;;;;;;;;;;;;;;;6.88;51.67;95651.09;4991780;28;20358;-78
2022/10/20 03:28:40;;;;;;;;;;;;;;;6.29;55.56;95657.66;4975236;28;20052;-78
2022/10/20 03:31:06;;;;;;;;;;;;;;;6.40;57.05;95650.47;4974802;28;19997;-77
2022/10/20 03:33:31;;;;;;;;;;;;;;;6.16;55.28;95652.75;4991469;28;20545;-77
2022/10/20 03:35:56;;;;;;;;;;;;;;;6.24;53.74;95644.91;4997661;28;19978;-77
2022/10/20 03:38:22;;;;;;;;;;;;;;;6.88;53.61;95638.66;4998012;28;19992;-77
2022/10/20 03:40:47;;;;;;;;;;;;;;;7.12;49.99;95641.66;4961008;28;19993;-77
2022/10/20 03:43:14;;;;;;;;;;;;;;;6.53;52.84;95645.66;4977409;28;20016;-77
2022/10/20 03:45:39;;;;;;;;;;;;;;;6.64;51.62;95647.25;4963201;28;20061;-77
2022/10/20 03:48:05;;;;;;;;;;;;;;;7.20;49.42;95640.88;4976499;28;20028;-78
2022/10/20 03:50:30;;;;;;;;;;;;;;;7.12;49.70;95629.25;4974662;28;20002;-77
2022/10/20 03:52:55;;;;;;;;;;;;;;;6.81;52.50;95620.94;4991806;28;19982;-77
2022/10/20 03:55:20;;;;;;;;;;;;;;;6.83;52.00;95616.31;4992481;28;19974;-77
2022/10/20 03:57:46;;;;;;;;;;;;;;;7.13;51.70;95627.44;4950338;28;20008;-77
2022/10/20 04:00:11;;;;;;;;;;;;;;;6.61;52.48;95639.63;4971754;28;20172;-78
2022/10/20 04:02:38;;;;;;;;;;;;;;;7.03;51.63;95632.81;4958550;28;19990;-78
2022/10/20 04:05:04;;;;;;;;;;;;;;;7.14;49.91;95626.44;4974439;28;20263;-77
2022/10/20 04:07:29;;;;;;;;;;;;;;;7.14;49.63;95631.72;4975588;28;20318;-77
2022/10/20 04:09:55;;;;;;;;;;;;;;;7.63;48.12;95622.41;4950685;28;20204;-77
2022/10/20 04:12:20;;;;;;;;;;;;;;;7.24;49.79;95621.06;4969882;28;20042;-77
2022/10/20 04:14:46;;;;;;;;;;;;;;;6.99;50.53;95619.09;4976652;28;19989;-78
2022/10/20 04:17:11;;;;;;;;;;;;;;;7.05;49.80;95611.50;4975554;28;20022;-77
2022/10/20 04:19:36;;;;;;;;;;;;;;;6.94;50.40;95610.75;4993513;28;20346;-77
2022/10/20 04:22:01;;;;;;;;;;;;;;;7.06;51.45;95595.47;4993326;28;20110;-77
2022/10/20 04:24:27;;;;;;;;;;;;;;;7.20;49.74;95603.78;4973844;28;19978;-78
2022/10/20 04:26:52;;;;;;;;;;;;;;;7.25;49.46;95597.03;4975232;28;19994;-77
2022/10/20 04:29:17;;;;;;;;;;;;;;;7.49;48.78;95603.47;4975126;28;19994;-77
2022/10/20 04:31:42;;;;;;;;;;;;;;;7.40;49.20;95589.34;4992240;28;20402;-77
2022/10/20 04:34:08;;;;;;;;;;;;;;;7.33;49.61;95595.44;4952651;28;20016;-77
2022/10/20 04:36:33;;;;;;;;;;;;;;;7.46;49.76;95587.88;4991647;28;20037;-77
2022/10/20 04:38:58;;;;;;;;;;;;;;;7.18;49.86;95596.03;4990528;28;19998;-77
2022/10/20 04:41:23;;;;;;;;;;;;;;;6.77;51.20;95584.19;4975266;28;19986;-77
2022/10/20 04:43:50;;;;;;;;;;;;;;;7.02;50.69;95596.75;4994833;28;20084;-77
2022/10/20 04:46:15;;;;;;;;;;;;;;;7.10;50.04;95588.84;4993639;28;20058;-77
2022/10/20 04:48:43;;;;;;;;;;;;;;;6.99;50.98;95594.41;4992303;28;20029;-77
2022/10/20 04:51:09;;;;;;;;;;;;;;;7.14;50.10;95584.06;4974617;28;20145;-77
2022/10/20 04:53:34;;;;;;;;;;;;;;;7.02;51.18;95570.28;4977005;28;20572;-78
2022/10/20 04:56:00;;;;;;;;;;;;;;;6.81;51.24;95573.28;4977785;28;19970;-77
2022/10/20 04:58:25;;;;;;;;;;;;;;;7.16;50.89;95560.94;4972763;28;20004;-77
2022/10/20 05:00:50;;;;;;;;;;;;;;;6.93;51.17;95564.09;4960354;28;19998;-77
2022/10/20 05:03:17;;;;;;;;;;;;;;;6.96;51.54;95560.31;4977282;28;19982;-77
2022/10/20 05:05:42;;;;;;;;;;;;;;;7.43;50.47;95564.38;4996210;28;20064;-77
2022/10/20 05:08:08;;;;;;;;;;;;;;;7.47;50.13;95557.75;4993432;28;19998;-77
2022/10/20 05:10:33;;;;;;;;;;;;;;;7.26;50.40;95539.63;4992636;28;19998;-77
2022/10/20 05:12:58;;;;;;;;;;;;;;;7.44;50.02;95541.38;4989456;28;20030;-77
2022/10/20 05:15:23;;;;;;;;;;;;;;;7.38;50.39;95533.03;4976161;28;20081;-77
2022/10/20 05:17:49;;;;;;;;;;;;;;;7.62;49.16;95523.50;4993468;28;20213;-77
2022/10/20 05:20:14;;;;;;;;;;;;;;;7.77;48.42;95526.41;4975278;28;20001;-77
2022/10/20 05:22:39;;;;;;;;;;;;;;;7.73;49.13;95521.56;4975094;28;20001;-77
2022/10/20 05:25:05;;;;;;;;;;;;;;;7.24;49.57;95518.59;4985105;28;20251;-77
2022/10/20 05:27:30;;;;;;;;;;;;;;;7.37;50.07;95522.59;4999474;28;19993;-77
2022/10/20 05:29:55;;;;;;;;;;;;;;;7.18;51.06;95513.94;5000275;28;20230;-77
2022/10/20 05:32:20;;;;;;;;;;;;;;;7.30;51.13;95514.47;4980508;28;19974;-77
2022/10/20 05:34:45;;;;;;;;;;;;;;;7.61;49.50;95505.97;4998091;28;20179;-77
2022/10/20 05:37:11;;;;;;;;;;;;;;;7.51;50.62;95503.47;4982745;28;20002;-77
2022/10/20 05:39:36;;;;;;;;;;;;;;;7.28;51.51;95503.22;4999215;28;19986;-77
2022/10/20 05:42:01;;;;;;;;;;;;;;;7.64;50.03;95504.81;5000184;28;20001;-77
2022/10/20 05:44:26;;;;;;;;;;;;;;;7.72;49.75;95504.81;5002540;28;19974;-77
2022/10/20 05:46:52;;;;;;;;;;;;;;;7.96;49.47;95497.94;5001642;28;20172;-77
2022/10/20 05:49:17;;;;;;;;;;;;;;;8.01;49.18;95495.63;4977047;28;19994;-77
2022/10/20 05:51:42;;;;;;;;;;;;;;;8.00;48.84;95488.69;4964176;28;20046;-77
2022/10/20 05:54:08;;;;;;;;;;;;;;;8.01;49.16;95469.13;4999424;28;20283;-77
2022/10/20 05:56:33;;;;;;;;;;;;;;;7.97;49.34;95485.50;4982914;28;20246;-77
2022/10/20 05:58:59;;;;;;;;;;;;;;;7.96;49.60;95487.31;4982599;28;19970;-77
2022/10/20 06:01:37;;;;;;;;;;;;;;;7.91;50.57;95479.03;4999144;28;19998;-77
2022/10/20 06:04:03;;;;;;;;;;;;;;;7.70;50.85;95498.03;4983580;28;19977;-77
2022/10/20 06:06:28;;;;;;;;;;;;;;;8.16;49.33;95500.28;4962103;28;20057;-77
2022/10/20 06:08:54;;;;;;;;;;;;;;;8.20;49.30;95503.41;5000448;28;19990;-77
2022/10/20 06:11:19;;;;;;;;;;;;;;;7.90;49.91;95503.91;4998449;28;20508;-77
2022/10/20 06:13:44;;;;;;;;;;;;;;;7.84;49.55;95513.34;4978103;28;20536;-78
2022/10/20 06:16:11;;;;;;;;;;;;;;;8.19;48.65;95518.50;4957836;28;19974;-78
2022/10/20 06:18:39;;;;;;;;;;;;;;;7.79;50.25;95513.81;4974417;28;19990;-78
2022/10/20 06:21:05;;;;;;;;;;;;;;;8.03;48.72;95516.69;4978456;28;20386;-78
2022/10/20 06:23:30;;;;;;;;;;;;;;;7.76;49.39;95514.09;4963872;28;19978;-78
2022/10/20 06:26:16;;;;;;;;;;;;;;;7.50;50.24;95512.41;4998633;28;20025;-78
2022/10/20 06:28:41;;;;;;;;;;;;;;;7.79;49.48;95511.16;5000835;28;19994;-78
2022/10/20 06:31:14;;;;;;;;;;;;;;;7.90;49.44;95511.84;5004173;28;19970;-78
2022/10/20 06:33:39;;;;;;;;;;;;;;;7.98;49.24;95517.16;4982737;28;20027;-79
2022/10/20 06:36:04;;;;;;;;;;;;;;;7.75;49.89;95509.00;4967703;28;19970;-79
2022/10/20 06:38:29;;;;;;;;;;;;;;;7.95;49.37;95506.88;4967838;28;20085;-79
2022/10/20 06:40:55;;;;;;;;;;;;;;;8.14;49.02;95499.59;4966670;28;19998;-79
2022/10/20 06:43:20;;;;;;;;;;;;;;;8.11;49.28;95505.22;4983594;28;19989;-73
2022/10/20 06:45:55;;;;;;;;;;;;;;;8.17;49.40;95493.97;4983029;28;20057;-78
2022/10/20 06:48:20;;;;;;;;;;;;;;;7.64;51.75;95516.25;4978248;28;20072;-78
2022/10/20 06:50:45;;;;;;;;;;;;;;;7.33;52.67;95523.91;4961976;28;20040;-79
2022/10/20 06:53:11;;;;;;;;;;;;;;;7.51;52.25;95518.50;4973799;28;20064;-67
2022/10/20 06:55:36;;;;;;;;;;;;;;;7.85;51.15;95527.44;4958420;28;19978;-67
2022/10/20 06:58:01;;;;;;;;;;;;;;;7.89;51.13;95532.22;4960396;28;19994;-67
2022/10/20 07:00:26;;;;;;;;;;;;;;;8.25;49.71;95527.63;4959078;28;20057;-67
2022/10/20 07:02:52;;;;;;;;;;;;;;;8.56;48.25;95529.59;4958705;28;20477;-67
2022/10/20 07:05:18;;;;;;;;;;;;;;;8.34;48.72;95534.59;4957976;28;19998;-67
2022/10/20 07:07:43;;;;;;;;;;;;;;;8.15;49.10;95533.09;4955428;28;20234;-67
2022/10/20 07:10:09;;;;;;;;;;;;;;;8.27;48.77;95542.38;4958247;28;20643;-67
2022/10/20 07:12:34;;;;;;;;;;;;;;;8.35;49.04;95538.91;4958050;28;19978;-67
2022/10/20 07:14:59;;;;;;;;;;;;;;;8.61;48.18;95529.09;4947696;28;20092;-67
2022/10/20 07:17:24;;;;;;;;;;;;;;;8.68;47.95;95527.44;4958795;28;19990;-67
2022/10/20 07:19:50;;;;;;;;;;;;;;;8.52;49.65;95518.50;4960080;28;19970;-67
2022/10/20 07:22:15;;;;;;;;;;;;;;;8.93;47.79;95524.72;4960942;28;20661;-67
2022/10/20 07:24:40;;;;;;;;;;;;;;;9.18;47.04;95512.22;4958735;28;20049;-67
2022/10/20 07:27:05;;;;;;;;;;;;;;;9.12;47.53;95517.41;4960065;28;19985;-67
2022/10/20 07:29:32;;;;;;;;;;;;;;;9.21;47.72;95527.00;4958516;28;20001;-68
2022/10/20 07:31:57;;;;;;;;;;;;;;;9.31;47.13;95538.25;4958828;28;20029;-67
2022/10/20 07:34:23;;;;;;;;;;;;;;;9.38;46.71;95540.22;4959490;28;20022;-67
2022/10/20 07:36:48;;;;;;;;;;;;;;;9.23;47.70;95534.78;4959608;28;19977;-68
2022/10/20 07:39:14;;;;;;;;;;;;;;;9.19;47.76;95535.13;4958830;28;19967;-68
2022/10/20 07:41:39;;;;;;;;;;;;;;;9.58;46.31;95541.47;4956773;28;20061;-68
2022/10/20 07:44:04;;;;;;;;;;;;;;;9.18;49.24;95530.81;4961100;28;19998;-68
2022/10/20 07:46:30;;;;;;;;;;;;;;;9.53;46.79;95527.88;4958392;28;20537;-68
2022/10/20 07:48:55;;;;;;;;;;;;;;;9.97;45.92;95520.31;4964891;28;20382;-68
2022/10/20 07:51:20;;;;;;;;;;;;;;;10.05;45.67;95501.66;4979243;28;20064;-68
2022/10/20 07:53:46;;;;;;;;;;;;;;;9.91;46.28;95510.38;4978968;28;20430;-68
2022/10/20 07:56:11;;;;;;;;;;;;;;;10.09;46.10;95505.63;4977391;28;20457;-68
2022/10/20 07:58:37;;;;;;;;;;;;;;;10.35;45.37;95507.09;4975818;28;20016;-68
2022/10/20 08:01:02;;;;;;;;;;;;;;;10.44;44.85;95499.84;4977552;28;20434;-68
2022/10/20 08:03:27;;;;;;;;;;;;;;;10.20;45.62;95498.25;4979281;28;19982;-68
2022/10/20 08:05:53;;;;;;;;;;;;;;;10.52;45.08;95490.13;4978864;28;20017;-68
2022/10/20 08:08:18;;;;;;;;;;;;;;;10.35;45.39;95488.47;4977332;28;20025;-68
2022/10/20 08:10:43;;;;;;;;;;;;;;;10.21;45.68;95490.06;4977674;28;20075;-68
2022/10/20 08:13:08;;;;;;;;;;;;;;;10.27;46.06;95487.69;4978297;28;20612;-68
2022/10/20 08:15:34;;;;;;;;;;;;;;;10.25;45.88;95493.19;4980733;28;20366;-68
2022/10/20 08:17:59;;;;;;;;;;;;;;;9.86;47.18;95500.25;4979798;28;19993;-68
2022/10/20 08:20:24;;;;;;;;;;;;;;;10.65;44.94;95490.34;4983203;28;20056;-68
2022/10/20 08:22:49;;;;;;;;;;;;;;;10.14;46.56;95506.91;4981515;28;20026;-68
2022/10/20 08:25:15;;;;;;;;;;;;;;;10.36;46.29;95503.41;4982419;28;20002;-68
2022/10/20 08:27:40;;;;;;;;;;;;;;;10.33;46.27;95502.94;4982580;28;20495;-68
2022/10/20 08:30:05;;;;;;;;;;;;;;;10.79;45.40;95487.88;4980837;28;19994;-68
2022/10/20 08:32:31;;;;;;;;;;;;;;;11.03;44.85;95483.28;4964398;28;19970;-68
2022/10/20 08:34:56;;;;;;;;;;;;;;;11.23;43.79;95486.25;4982413;28;19986;-68
2022/10/20 08:37:21;;;;;;;;;;;;;;;11.17;44.35;95479.84;4981038;28;20621;-68
2022/10/20 08:39:46;;;;;;;;;;;;;;;11.30;43.71;95479.19;4981578;28;20572;-68
2022/10/20 08:42:12;;;;;;;;;;;;;;;11.48;43.48;95481.44;4981856;28;20005;-68
2022/10/20 08:44:37;;;;;;;;;;;;;;;11.43;44.10;95477.69;4982384;28;19995;-68
2022/10/20 08:47:03;;;;;;;;;;;;;;;11.46;44.07;95474.66;4965328;28;19974;-68
2022/10/20 08:49:29;;;;;;;;;;;;;;;11.49;43.79;95474.28;4979521;28;20221;-68
2022/10/20 08:51:54;;;;;;;;;;;;;;;11.19;44.69;95484.97;4979450;28;19978;-68
2022/10/20 08:54:19;;;;;;;;;;;;;;;11.44;44.19;95484.66;4982975;28;20555;-68
2022/10/20 08:56:44;;;;;;;;;;;;;;;11.98;43.22;95477.25;4979536;28;19969;-68
2022/10/20 08:59:16;;;;;;;;;;;;;;;11.51;44.12;95469.56;4960932;28;20365;-68
2022/10/20 09:01:41;;;;;;;;;;;;;;;11.30;45.00;95463.19;4963554;28;19990;-68
2022/10/20 09:04:15;;;;;;;;;;;;;;;11.30;44.96;95465.84;4958280;28;20025;-68
2022/10/20 09:06:40;;;;;;;;;;;;;;;11.33;45.09;95469.97;4979362;28;19993;-68
2022/10/20 09:09:06;;;;;;;;;;;;;;;11.48;44.49;95462.78;4962965;28;20554;-68
2022/10/20 09:11:33;;;;;;;;;;;;;;;11.59;44.23;95458.78;4965318;28;20002;-68
2022/10/20 09:13:58;;;;;;;;;;;;;;;11.58;44.61;95453.66;4982278;28;20285;-67
2022/10/20 09:16:24;;;;;;;;;;;;;;;11.90;43.58;95459.53;4981960;28;20576;-67
2022/10/20 09:18:51;;;;;;;;;;;;;;;11.83;43.74;95451.44;4980488;28;19990;-67
2022/10/20 09:21:17;;;;;;;;;;;;;;;11.90;43.82;95447.00;4962436;28;20482;-68
2022/10/20 09:23:43;;;;;;;;;;;;;;;12.05;43.26;95431.94;4957972;28;19970;-68
2022/10/20 09:26:12;;;;;;;;;;;;;;;12.05;43.04;95459.47;4979727;28;19994;-68
2022/10/20 09:28:37;;;;;;;;;;;;;;;11.98;43.50;95451.41;4978503;28;20133;-68
2022/10/20 09:31:03;;;;;;;;;;;;;;;12.13;42.97;95459.34;4955902;28;20486;-68
2022/10/20 09:33:28;;;;;;;;;;;;;;;11.92;43.43;95456.66;4963370;28;20021;-68
2022/10/20 09:35:54;;;;;;;;;;;;;;;12.13;42.82;95472.69;4982070;28;20032;-68
2022/10/20 09:38:28;;;;;;;;;;;;;;;11.99;43.19;95489.56;4980982;28;20092;-68
2022/10/20 09:40:57;;;;;;;;;;;;;;;11.99;43.48;95481.56;4962395;28;19990;-68
2022/10/20 09:43:23;;;;;;;;;;;;;;;11.90;43.54;95472.88;4978626;28;20078;-67
2022/10/20 09:45:49;;;;;;;;;;;;;;;12.25;42.80;95475.69;4957033;28;20077;-68
2022/10/20 09:48:24;;;;;;;;;;;;;;;12.23;43.25;95469.69;4961577;28;19974;-68
2022/10/20 09:50:50;;;;;;;;;;;;;;;12.35;43.13;95478.03;4959359;28;20049;-68
2022/10/20 09:53:19;;;;;;;;;;;;;;;12.09;43.51;95478.59;4959770;28;20006;-68
2022/10/20 09:55:48;;;;;;;;;;;;;;;12.27;43.18;95494.16;4959747;28;20045;-68
2022/10/20 09:58:16;;;;;;;;;;;;;;;11.97;44.58;95486.28;4959136;28;20002;-68
2022/10/20 10:00:47;;;;;;;;;;;;;;;12.31;43.29;95475.94;4958660;28;20029;-68
2022/10/20 10:03:19;;;;;;;;;;;;;;;12.20;43.77;95478.09;4961805;28;20022;-68
2022/10/20 10:05:45;;;;;;;;;;;;;;;11.88;44.63;95475.72;4958668;28;19991;-68
2022/10/20 10:08:12;;;;;;;;;;;;;;;12.11;43.79;95474.72;4960313;28;20200;-68
2022/10/20 10:10:37;;;;;;;;;;;;;;;12.26;44.52;95463.16;4959571;28;19998;-68
2022/10/20 10:13:04;;;;;;;;;;;;;;;12.30;44.23;95464.41;4954155;28;20507;-68
2022/10/20 10:15:30;;;;;;;;;;;;;;;12.38;43.71;95460.78;4960286;28;19970;-68
2022/10/20 10:17:55;;;;;;;;;;;;;;;12.26;43.28;95463.16;4957210;28;19999;-68
2022/10/20 10:20:21;;;;;;;;;;;;;;;12.23;43.41;95468.88;4961706;28;20021;-68
2022/10/20 10:22:46;;;;;;;;;;;;;;;12.21;44.02;95477.06;4961789;28;19998;-68
2022/10/20 10:25:38;;;;;;;;;;;;;;;12.19;44.26;95473.78;4960067;28;20006;-68
2022/10/20 10:28:05;;;;;;;;;;;;;;;12.20;43.47;95483.44;4957085;28;20065;-68
2022/10/20 10:30:34;;;;;;;;;;;;;;;11.85;44.55;95481.44;4957509;28;19997;-68
2022/10/20 10:32:59;;;;;;;;;;;;;;;11.96;44.04;95482.75;4959655;28;19995;-68
2022/10/20 10:35:28;;;;;;;;;;;;;;;11.99;44.37;95473.56;4959098;28;20390;-68
2022/10/20 10:37:53;;;;;;;;;;;;;;;12.17;44.27;95491.81;4952991;28;20505;-68
2022/10/20 10:40:20;;;;;;;;;;;;;;;12.02;44.22;95484.69;4958157;28;20069;-69
2022/10/20 10:42:48;;;;;;;;;;;;;;;11.74;44.77;95480.09;4958122;28;19990;-68
2022/10/20 10:45:22;;;;;;;;;;;;;;;11.54;45.25;95468.38;4959955;28;20083;-68
2022/10/20 10:47:51;;;;;;;;;;;;;;;11.74;44.96;95469.44;4958225;28;20468;-68
2022/10/20 10:50:21;;;;;;;;;;;;;;;11.63;45.44;95467.25;4971513;28;20088;-69
2022/10/20 10:52:46;;;;;;;;;;;;;;;11.87;45.08;95459.91;4960562;28;19985;-68
2022/10/20 10:55:35;;;;;;;;;;;;;;;11.74;44.90;95457.94;4979377;28;19963;-68
2022/10/20 10:58:05;;;;;;;;;;;;;;;11.89;44.59;95466.69;4972575;28;20049;-68
2022/10/20 11:00:45;;;;;;;;;;;;;;;11.68;45.06;95462.19;4955031;28;20017;-68
2022/10/20 11:03:29;;;;;;;;;;;;;;;11.91;44.59;95466.50;4977520;28;20606;-68
2022/10/20 11:05:57;;;;;;;;;;;;;;;11.98;44.29;95477.25;4978253;28;20762;-68
2022/10/20 11:08:29;;;;;;;;;;;;;;;11.96;44.26;95463.25;4979162;28;20627;-79
2022/10/20 11:11:13;;;;;;;;;;;;;;;11.94;44.82;95454.63;4955247;28;20623;-81
2022/10/20 11:13:48;;;;;;;;;;;;;;;11.75;45.35;95439.06;4978232;28;19993;-79
2022/10/20 11:16:20;;;;;;;;;;;;;;;11.76;45.08;95443.38;4956343;28;19978;-80
2022/10/20 11:18:52;;;;;;;;;;;;;;;11.84;45.36;95429.13;4961841;28;20001;-80
2022/10/20 11:21:36;;;;;;;;;;;;;;;11.99;44.86;95420.19;4962562;28;20020;-80
2022/10/20 11:24:05;;;;;;;;;;;;;;;12.00;44.09;95408.53;4972822;28;19978;-78
2022/10/20 11:26:34;;;;;;;;;;;;;;;12.11;44.27;95412.53;4961258;28;20013;-78
2022/10/20 11:28:59;;;;;;;;;;;;;;;12.12;44.59;95407.00;4963992;28;25190;-79
2022/10/20 11:31:29;;;;;;;;;;;;;;;12.08;44.57;95426.25;4941077;28;19973;-79
2022/10/20 11:34:15;;;;;;;;;;;;;;;12.17;44.47;95424.28;4961725;28;20092;-80
2022/10/20 11:36:49;;;;;;;;;;;;;;;11.96;45.48;95412.56;4946083;28;19974;-80
2022/10/20 11:39:34;;;;;;;;;;;;;;;11.74;45.70;95418.75;4962882;28;20055;-80
2022/10/20 11:42:02;;;;;;;;;;;;;;;11.72;45.17;95431.44;4977506;28;20056;-80
2022/10/20 11:44:29;;;;;;;;;;;;;;;11.92;44.64;95429.97;4962993;28;19981;-79
2022/10/20 11:47:09;;;;;;;;;;;;;;;11.21;47.21;95435.81;4961718;28;20008;-80
2022/10/20 11:49:36;;;;;;;;;;;;;;;11.64;45.78;95439.56;4956467;28;20009;-79
2022/10/20 11:52:10;;;;;;;;;;;;;;;11.83;45.13;95448.78;4958470;28;20109;-80
2022/10/20 11:54:45;;;;;;;;;;;;;;;11.58;46.08;95454.47;4957048;28;20488;-78
2022/10/20 11:57:10;;;;;;;;;;;;;;;11.86;45.15;95464.41;4979833;28;20067;-79
2022/10/20 11:59:48;;;;;;;;;;;;;;;11.74;45.34;95447.25;4981003;28;20309;-80
2022/10/20 12:02:17;;;;;;;;;;;;;;;11.76;45.22;95459.38;4956264;28;19989;-79
2022/10/20 12:04:59;;;;;;;;;;;;;;;11.69;46.10;95457.69;4979740;28;20025;-79
2022/10/20 12:07:43;;;;;;;;;;;;;;;11.64;45.88;95466.22;4961876;28;20052;-78
2022/10/20 12:10:28;;;;;;;;;;;;;;;11.79;45.79;95466.19;4980127;28;20010;-79
2022/10/20 12:13:11;;;;;;;;;;;;;;;11.83;45.66;95463.97;4958075;28;21063;-79
2022/10/20 12:15:43;;;;;;;;;;;;;;;11.73;45.72;95459.75;4979532;28;19970;-78
2022/10/20 12:18:14;;;;;;;;;;;;;;;11.75;45.85;95459.56;4962565;28;20445;-79
2022/10/20 12:20:46;;;;;;;;;;;;;;;11.64;46.08;95463.56;4962522;28;19993;-79
2022/10/20 12:23:31;;;;;;;;;;;;;;;11.61;46.53;95459.44;4963269;28;20481;-79
2022/10/20 12:25:56;;;;;;;;;;;;;;;11.85;45.85;95456.59;4956301;28;19993;-78
2022/10/20 12:28:22;;;;;;;;;;;;;;;11.71;46.35;95456.47;4980271;28;20298;-78
2022/10/20 12:31:16;;;;;;;;;;;;;;;11.63;46.13;95449.41;4979396;28;20084;-79
2022/10/20 12:33:48;;;;;;;;;;;;;;;11.37;46.55;95449.94;4966664;28;20019;-79
2022/10/20 12:36:16;;;;;;;;;;;;;;;11.54;46.13;95455.03;4979261;28;19978;-78
2022/10/20 12:38:41;;;;;;;;;;;;;;;11.63;46.15;95460.06;4979374;28;19986;-79
2022/10/20 12:41:07;;;;;;;;;;;;;;;11.70;46.05;95449.47;4961609;28;20369;-78
2022/10/20 12:43:33;;;;;;;;;;;;;;;11.73;45.74;95446.41;4961977;28;19980;-78
2022/10/20 12:46:03;;;;;;;;;;;;;;;11.79;45.67;95433.38;4960578;28;20476;-77
2022/10/20 12:48:29;;;;;;;;;;;;;;;11.51;46.40;95441.09;4958995;28;19985;-79
2022/10/20 12:50:54;;;;;;;;;;;;;;;11.93;45.07;95445.78;4956830;28;20199;-79
2022/10/20 12:53:25;;;;;;;;;;;;;;;12.05;45.85;95443.44;4959864;28;20454;-78